sensor_id;sensor_type;location;lat;lon;timestamp;P1;durP1;ratioP1;P2;durP2;ratioP2
29380;SDS011;16364;52.490;13.326;2023-01-28T00:01:52;4.00;;;2.37;;
29380;SDS011;16364;52.490;13.326;2023-01-28T00:04:17;2.47;;;1.90;;
29380;SDS011;16364;52.490;13.326;2023-01-28T00:06:42;3.47;;;2.03;;
29380;SDS011;16364;52.490;13.326;2023-01-28T00:09:08;3.07;;;1.90;;
29380;SDS011;16364;52.490;13.326;2023-01-28T00:11:33;5.37;;;2.37;;
29380;SDS011;16364;52.490;13.326;2023-01-28T00:13:58;3.13;;;2.53;;
29380;SDS011;16364;52.490;13.326;2023-01-28T00:16:24;2.40;;;2.03;;
29380;SDS011;16364;52.490;13.326;2023-01-28T00:18:53;4.50;;;2.20;;
29380;SDS011;16364;52.490;13.326;2023-01-28T00:21:18;2.83;;;2.00;;
29380;SDS011;16364;52.490;13.326;2023-01-28T00:23:46;5.20;;;2.50;;
29380;SDS011;16364;52.490;13.326;2023-01-28T00:26:13;4.00;;;2.23;;
29380;SDS011;16364;52.490;13.326;2023-01-28T00:28:38;3.20;;;1.90;;
29380;SDS011;16364;52.490;13.326;2023-01-28T00:31:14;3.10;;;2.53;;
29380;SDS011;16364;52.490;13.326;2023-01-28T00:33:41;3.60;;;2.20;;
29380;SDS011;16364;52.490;13.326;2023-01-28T00:36:06;2.77;;;2.53;;
29380;SDS011;16364;52.490;13.326;2023-01-28T00:38:32;3.27;;;2.30;;
29380;SDS011;16364;52.490;13.326;2023-01-28T00:41:07;4.33;;;2.20;;
29380;SDS011;16364;52.490;13.326;2023-01-28T00:43:34;4.67;;;2.60;;
29380;SDS011;16364;52.490;13.326;2023-01-28T00:45:59;2.47;;;2.20;;
29380;SDS011;16364;52.490;13.326;2023-01-28T00:48:24;2.93;;;2.43;;
29380;SDS011;16364;52.490;13.326;2023-01-28T00:50:49;3.63;;;2.10;;
29380;SDS011;16364;52.490;13.326;2023-01-28T00:53:15;4.60;;;1.80;;
29380;SDS011;16364;52.490;13.326;2023-01-28T00:55:41;3.20;;;2.03;;
29380;SDS011;16364;52.490;13.326;2023-01-28T00:58:06;3.27;;;1.83;;
29380;SDS011;16364;52.490;13.326;2023-01-28T01:00:31;4.40;;;2.50;;
29380;SDS011;16364;52.490;13.326;2023-01-28T01:02:56;3.40;;;2.67;;
29380;SDS011;16364;52.490;13.326;2023-01-28T01:05:22;3.50;;;2.63;;
29380;SDS011;16364;52.490;13.326;2023-01-28T01:07:47;5.53;;;2.50;;
29380;SDS011;16364;52.490;13.326;2023-01-28T01:10:13;3.10;;;2.10;;
29380;SDS011;16364;52.490;13.326;2023-01-28T01:12:39;2.93;;;2.20;;
29380;SDS011;16364;52.490;13.326;2023-01-28T01:15:05;2.90;;;2.10;;
29380;SDS011;16364;52.490;13.326;2023-01-28T01:17:34;2.73;;;2.13;;
29380;SDS011;16364;52.490;13.326;2023-01-28T01:20:01;3.13;;;2.10;;
29380;SDS011;16364;52.490;13.326;2023-01-28T01:22:27;7.57;;;3.00;;
29380;SDS011;16364;52.490;13.326;2023-01-28T01:24:52;3.70;;;2.10;;
29380;SDS011;16364;52.490;13.326;2023-01-28T01:27:17;3.20;;;1.90;;
29380;SDS011;16364;52.490;13.326;2023-01-28T01:29:43;5.80;;;2.23;;
29380;SDS011;16364;52.490;13.326;2023-01-28T01:32:08;3.37;;;2.43;;
29380;SDS011;16364;52.490;13.326;2023-01-28T01:34:33;2.60;;;2.00;;
29380;SDS011;16364;52.490;13.326;2023-01-28T01:36:59;3.93;;;2.27;;
29380;SDS011;16364;52.490;13.326;2023-01-28T01:39:24;2.40;;;1.73;;
29380;SDS011;16364;52.490;13.326;2023-01-28T01:41:49;3.23;;;2.07;;
29380;SDS011;16364;52.490;13.326;2023-01-28T01:46:59;2.80;;;1.90;;
29380;SDS011;16364;52.490;13.326;2023-01-28T01:49:25;2.27;;;2.07;;
29380;SDS011;16364;52.490;13.326;2023-01-28T01:51:52;4.50;;;2.23;;
29380;SDS011;16364;52.490;13.326;2023-01-28T01:54:18;2.47;;;1.80;;
29380;SDS011;16364;52.490;13.326;2023-01-28T01:56:45;2.80;;;1.80;;
29380;SDS011;16364;52.490;13.326;2023-01-28T01:59:11;4.87;;;2.40;;
29380;SDS011;16364;52.490;13.326;2023-01-28T02:01:39;2.97;;;1.80;;
29380;SDS011;16364;52.490;13.326;2023-01-28T02:04:07;3.13;;;2.00;;
29380;SDS011;16364;52.490;13.326;2023-01-28T02:06:33;1.70;;;1.60;;
29380;SDS011;16364;52.490;13.326;2023-01-28T02:08:59;3.10;;;2.20;;
29380;SDS011;16364;52.490;13.326;2023-01-28T02:11:25;3.60;;;2.23;;
29380;SDS011;16364;52.490;13.326;2023-01-28T02:13:52;4.90;;;2.00;;
29380;SDS011;16364;52.490;13.326;2023-01-28T02:16:18;3.43;;;2.37;;
29380;SDS011;16364;52.490;13.326;2023-01-28T02:18:44;1.70;;;1.60;;
29380;SDS011;16364;52.490;13.326;2023-01-28T02:26:32;2.87;;;2.37;;
29380;SDS011;16364;52.490;13.326;2023-01-28T02:29:06;3.33;;;2.03;;
29380;SDS011;16364;52.490;13.326;2023-01-28T02:31:50;5.13;;;2.37;;
29380;SDS011;16364;52.490;13.326;2023-01-28T02:34:18;2.00;;;1.80;;
29380;SDS011;16364;52.490;13.326;2023-01-28T02:39:14;2.83;;;1.73;;
29380;SDS011;16364;52.490;13.326;2023-01-28T02:41:42;2.07;;;1.87;;
29380;SDS011;16364;52.490;13.326;2023-01-28T02:44:10;3.40;;;2.10;;
29380;SDS011;16364;52.490;13.326;2023-01-28T02:46:36;4.83;;;2.50;;
29380;SDS011;16364;52.490;13.326;2023-01-28T02:57:05;4.00;;;1.90;;
29380;SDS011;16364;52.490;13.326;2023-01-28T02:59:41;3.57;;;2.07;;
29380;SDS011;16364;52.490;13.326;2023-01-28T03:02:11;8.77;;;2.27;;
29380;SDS011;16364;52.490;13.326;2023-01-28T03:07:10;5.70;;;3.93;;
29380;SDS011;16364;52.490;13.326;2023-01-28T03:09:36;6.97;;;2.57;;
29380;SDS011;16364;52.490;13.326;2023-01-28T03:14:51;4.03;;;2.30;;
29380;SDS011;16364;52.490;13.326;2023-01-28T03:17:43;3.27;;;1.93;;
29380;SDS011;16364;52.490;13.326;2023-01-28T03:20:35;3.43;;;1.90;;
29380;SDS011;16364;52.490;13.326;2023-01-28T03:23:22;3.70;;;2.27;;
29380;SDS011;16364;52.490;13.326;2023-01-28T03:26:10;2.53;;;2.00;;
29380;SDS011;16364;52.490;13.326;2023-01-28T03:28:54;3.37;;;1.80;;
29380;SDS011;16364;52.490;13.326;2023-01-28T03:31:41;4.77;;;1.87;;
29380;SDS011;16364;52.490;13.326;2023-01-28T03:34:25;3.60;;;1.80;;
29380;SDS011;16364;52.490;13.326;2023-01-28T03:37:10;2.10;;;1.90;;
29380;SDS011;16364;52.490;13.326;2023-01-28T03:39:38;5.40;;;2.00;;
29380;SDS011;16364;52.490;13.326;2023-01-28T03:42:05;2.67;;;2.27;;
29380;SDS011;16364;52.490;13.326;2023-01-28T03:44:31;1.90;;;1.80;;
29380;SDS011;16364;52.490;13.326;2023-01-28T03:47:15;3.70;;;2.20;;
29380;SDS011;16364;52.490;13.326;2023-01-28T03:49:40;5.13;;;2.00;;
29380;SDS011;16364;52.490;13.326;2023-01-28T03:52:06;2.30;;;2.10;;
29380;SDS011;16364;52.490;13.326;2023-01-28T03:54:31;3.23;;;2.27;;
29380;SDS011;16364;52.490;13.326;2023-01-28T03:56:56;3.20;;;2.33;;
29380;SDS011;16364;52.490;13.326;2023-01-28T03:59:21;2.30;;;1.90;;
29380;SDS011;16364;52.490;13.326;2023-01-28T04:01:47;2.57;;;2.37;;
29380;SDS011;16364;52.490;13.326;2023-01-28T04:04:14;3.17;;;2.37;;
29380;SDS011;16364;52.490;13.326;2023-01-28T04:06:47;2.50;;;2.03;;
29380;SDS011;16364;52.490;13.326;2023-01-28T04:09:12;2.63;;;2.10;;
29380;SDS011;16364;52.490;13.326;2023-01-28T04:11:37;2.10;;;1.70;;
29380;SDS011;16364;52.490;13.326;2023-01-28T04:14:02;2.67;;;1.90;;
29380;SDS011;16364;52.490;13.326;2023-01-28T04:16:28;3.30;;;2.10;;
29380;SDS011;16364;52.490;13.326;2023-01-28T04:18:53;2.23;;;1.63;;
29380;SDS011;16364;52.490;13.326;2023-01-28T04:21:18;2.13;;;1.80;;
29380;SDS011;16364;52.490;13.326;2023-01-28T04:23:45;2.83;;;1.90;;
29380;SDS011;16364;52.490;13.326;2023-01-28T04:26:10;4.10;;;2.03;;
29380;SDS011;16364;52.490;13.326;2023-01-28T04:28:35;2.00;;;1.80;;
29380;SDS011;16364;52.490;13.326;2023-01-28T04:31:00;1.57;;;1.47;;
29380;SDS011;16364;52.490;13.326;2023-01-28T04:33:25;1.60;;;1.50;;
29380;SDS011;16364;52.490;13.326;2023-01-28T04:35:51;3.23;;;1.50;;
29380;SDS011;16364;52.490;13.326;2023-01-28T04:38:16;1.70;;;1.60;;
29380;SDS011;16364;52.490;13.326;2023-01-28T04:40:41;1.43;;;1.33;;
29380;SDS011;16364;52.490;13.326;2023-01-28T04:43:07;2.30;;;1.60;;
29380;SDS011;16364;52.490;13.326;2023-01-28T04:45:33;2.57;;;1.60;;
29380;SDS011;16364;52.490;13.326;2023-01-28T04:47:58;1.90;;;1.47;;
29380;SDS011;16364;52.490;13.326;2023-01-28T04:50:23;2.20;;;1.60;;
29380;SDS011;16364;52.490;13.326;2023-01-28T04:52:50;2.03;;;1.70;;
29380;SDS011;16364;52.490;13.326;2023-01-28T04:55:15;1.50;;;1.40;;
29380;SDS011;16364;52.490;13.326;2023-01-28T04:57:40;2.20;;;2.00;;
29380;SDS011;16364;52.490;13.326;2023-01-28T05:00:06;1.60;;;1.50;;
29380;SDS011;16364;52.490;13.326;2023-01-28T05:02:33;1.53;;;1.40;;
29380;SDS011;16364;52.490;13.326;2023-01-28T05:04:58;1.70;;;1.60;;
29380;SDS011;16364;52.490;13.326;2023-01-28T05:07:25;1.87;;;1.57;;
29380;SDS011;16364;52.490;13.326;2023-01-28T05:09:50;1.77;;;1.50;;
29380;SDS011;16364;52.490;13.326;2023-01-28T05:12:16;1.87;;;1.50;;
29380;SDS011;16364;52.490;13.326;2023-01-28T05:14:41;2.30;;;1.40;;
29380;SDS011;16364;52.490;13.326;2023-01-28T05:17:06;1.67;;;1.57;;
29380;SDS011;16364;52.490;13.326;2023-01-28T05:19:31;1.53;;;1.43;;
29380;SDS011;16364;52.490;13.326;2023-01-28T05:21:57;3.13;;;1.73;;
29380;SDS011;16364;52.490;13.326;2023-01-28T05:24:22;1.50;;;1.40;;
29380;SDS011;16364;52.490;13.326;2023-01-28T05:26:47;2.93;;;1.80;;
29380;SDS011;16364;52.490;13.326;2023-01-28T05:29:14;2.67;;;2.00;;
29380;SDS011;16364;52.490;13.326;2023-01-28T05:31:41;2.30;;;1.87;;
29380;SDS011;16364;52.490;13.326;2023-01-28T05:34:06;2.27;;;1.83;;
29380;SDS011;16364;52.490;13.326;2023-01-28T05:36:32;2.30;;;1.60;;
29380;SDS011;16364;52.490;13.326;2023-01-28T05:38:57;2.07;;;1.97;;
29380;SDS011;16364;52.490;13.326;2023-01-28T05:41:22;3.37;;;2.30;;
29380;SDS011;16364;52.490;13.326;2023-01-28T05:43:48;2.23;;;2.03;;
29380;SDS011;16364;52.490;13.326;2023-01-28T05:46:13;3.90;;;2.30;;
29380;SDS011;16364;52.490;13.326;2023-01-28T05:48:38;2.90;;;2.50;;
29380;SDS011;16364;52.490;13.326;2023-01-28T05:51:03;3.50;;;2.30;;
29380;SDS011;16364;52.490;13.326;2023-01-28T05:53:29;3.83;;;2.50;;
29380;SDS011;16364;52.490;13.326;2023-01-28T05:55:55;8.53;;;3.30;;
29380;SDS011;16364;52.490;13.326;2023-01-28T05:58:20;3.30;;;2.83;;
29380;SDS011;16364;52.490;13.326;2023-01-28T06:00:45;6.47;;;4.43;;
29380;SDS011;16364;52.490;13.326;2023-01-28T06:03:11;6.57;;;4.37;;
29380;SDS011;16364;52.490;13.326;2023-01-28T06:05:36;6.97;;;3.63;;
29380;SDS011;16364;52.490;13.326;2023-01-28T06:08:01;5.73;;;3.57;;
29380;SDS011;16364;52.490;13.326;2023-01-28T06:10:27;7.00;;;4.63;;
29380;SDS011;16364;52.490;13.326;2023-01-28T06:12:54;6.97;;;4.30;;
29380;SDS011;16364;52.490;13.326;2023-01-28T06:15:20;7.13;;;4.87;;
29380;SDS011;16364;52.490;13.326;2023-01-28T06:17:45;5.20;;;4.37;;
29380;SDS011;16364;52.490;13.326;2023-01-28T06:20:10;7.63;;;4.67;;
29380;SDS011;16364;52.490;13.326;2023-01-28T06:22:36;7.10;;;5.27;;
29380;SDS011;16364;52.490;13.326;2023-01-28T06:25:01;6.70;;;5.07;;
29380;SDS011;16364;52.490;13.326;2023-01-28T06:27:27;9.10;;;6.10;;
29380;SDS011;16364;52.490;13.326;2023-01-28T06:29:52;7.50;;;4.73;;
29380;SDS011;16364;52.490;13.326;2023-01-28T06:32:18;9.07;;;6.20;;
29380;SDS011;16364;52.490;13.326;2023-01-28T06:34:43;6.50;;;4.10;;
29380;SDS011;16364;52.490;13.326;2023-01-28T06:37:11;8.27;;;4.90;;
29380;SDS011;16364;52.490;13.326;2023-01-28T06:39:37;5.30;;;4.30;;
29380;SDS011;16364;52.490;13.326;2023-01-28T06:42:02;6.23;;;4.47;;
29380;SDS011;16364;52.490;13.326;2023-01-28T06:44:28;7.30;;;4.47;;
29380;SDS011;16364;52.490;13.326;2023-01-28T06:46:53;5.83;;;3.87;;
29380;SDS011;16364;52.490;13.326;2023-01-28T06:49:18;7.20;;;5.27;;
29380;SDS011;16364;52.490;13.326;2023-01-28T06:51:44;5.93;;;4.30;;
29380;SDS011;16364;52.490;13.326;2023-01-28T06:54:09;4.70;;;2.80;;
29380;SDS011;16364;52.490;13.326;2023-01-28T06:56:35;2.53;;;2.33;;
29380;SDS011;16364;52.490;13.326;2023-01-28T06:59:00;4.43;;;2.50;;
29380;SDS011;16364;52.490;13.326;2023-01-28T07:01:25;2.60;;;2.17;;
29380;SDS011;16364;52.490;13.326;2023-01-28T07:03:50;2.83;;;2.10;;
29380;SDS011;16364;52.490;13.326;2023-01-28T07:06:16;2.33;;;1.90;;
29380;SDS011;16364;52.490;13.326;2023-01-28T07:08:41;5.70;;;2.50;;
29380;SDS011;16364;52.490;13.326;2023-01-28T07:11:06;2.23;;;2.03;;
29380;SDS011;16364;52.490;13.326;2023-01-28T07:13:32;3.17;;;2.30;;
29380;SDS011;16364;52.490;13.326;2023-01-28T07:15:58;3.20;;;2.20;;
29380;SDS011;16364;52.490;13.326;2023-01-28T07:18:23;2.17;;;1.73;;
29380;SDS011;16364;52.490;13.326;2023-01-28T07:20:48;2.90;;;1.90;;
29380;SDS011;16364;52.490;13.326;2023-01-28T07:23:14;2.30;;;2.00;;
29380;SDS011;16364;52.490;13.326;2023-01-28T07:25:40;3.43;;;2.03;;
29380;SDS011;16364;52.490;13.326;2023-01-28T07:28:06;2.60;;;2.00;;
29380;SDS011;16364;52.490;13.326;2023-01-28T07:30:31;2.70;;;2.50;;
29380;SDS011;16364;52.490;13.326;2023-01-28T07:32:58;2.10;;;2.00;;
29380;SDS011;16364;52.490;13.326;2023-01-28T07:35:24;2.10;;;1.70;;
29380;SDS011;16364;52.490;13.326;2023-01-28T07:37:53;2.87;;;1.43;;
29380;SDS011;16364;52.490;13.326;2023-01-28T07:40:18;1.40;;;1.30;;
29380;SDS011;16364;52.490;13.326;2023-01-28T07:42:44;1.10;;;1.00;;
29380;SDS011;16364;52.490;13.326;2023-01-28T07:45:09;3.50;;;1.27;;
29380;SDS011;16364;52.490;13.326;2023-01-28T07:47:34;1.70;;;1.20;;
29380;SDS011;16364;52.490;13.326;2023-01-28T07:49:59;1.43;;;1.33;;
29380;SDS011;16364;52.490;13.326;2023-01-28T07:52:25;2.90;;;1.30;;
29380;SDS011;16364;52.490;13.326;2023-01-28T07:54:50;1.30;;;1.20;;
29380;SDS011;16364;52.490;13.326;2023-01-28T07:57:15;4.70;;;1.40;;
29380;SDS011;16364;52.490;13.326;2023-01-28T07:59:47;1.73;;;1.60;;
29380;SDS011;16364;52.490;13.326;2023-01-28T08:02:12;1.77;;;1.50;;
29380;SDS011;16364;52.490;13.326;2023-01-28T08:04:38;1.90;;;1.50;;
29380;SDS011;16364;52.490;13.326;2023-01-28T08:07:04;1.47;;;1.37;;
29380;SDS011;16364;52.490;13.326;2023-01-28T08:09:30;2.20;;;1.60;;
29380;SDS011;16364;52.490;13.326;2023-01-28T08:11:58;7.13;;;3.57;;
29380;SDS011;16364;52.490;13.326;2023-01-28T08:14:23;2.17;;;1.67;;
29380;SDS011;16364;52.490;13.326;2023-01-28T08:16:48;3.33;;;1.77;;
29380;SDS011;16364;52.490;13.326;2023-01-28T08:19:14;1.80;;;1.20;;
29380;SDS011;16364;52.490;13.326;2023-01-28T08:21:40;2.40;;;1.27;;
29380;SDS011;16364;52.490;13.326;2023-01-28T08:24:05;4.00;;;1.53;;
29380;SDS011;16364;52.490;13.326;2023-01-28T08:26:30;1.33;;;1.23;;
29380;SDS011;16364;52.490;13.326;2023-01-28T08:28:57;1.30;;;1.20;;
29380;SDS011;16364;52.490;13.326;2023-01-28T08:31:22;1.80;;;1.30;;
29380;SDS011;16364;52.490;13.326;2023-01-28T08:33:49;1.40;;;1.30;;
29380;SDS011;16364;52.490;13.326;2023-01-28T08:36:14;1.23;;;1.13;;
29380;SDS011;16364;52.490;13.326;2023-01-28T08:38:39;1.40;;;1.30;;
29380;SDS011;16364;52.490;13.326;2023-01-28T08:41:05;1.50;;;1.40;;
29380;SDS011;16364;52.490;13.326;2023-01-28T08:43:30;2.10;;;1.67;;
29380;SDS011;16364;52.490;13.326;2023-01-28T08:45:55;1.57;;;1.47;;
29380;SDS011;16364;52.490;13.326;2023-01-28T08:48:21;1.23;;;1.13;;
29380;SDS011;16364;52.490;13.326;2023-01-28T08:50:46;2.50;;;1.30;;
29380;SDS011;16364;52.490;13.326;2023-01-28T08:53:12;1.50;;;1.40;;
29380;SDS011;16364;52.490;13.326;2023-01-28T08:55:38;2.03;;;1.20;;
29380;SDS011;16364;52.490;13.326;2023-01-28T08:58:04;3.37;;;1.13;;
29380;SDS011;16364;52.490;13.326;2023-01-28T09:00:30;1.47;;;1.00;;
29380;SDS011;16364;52.490;13.326;2023-01-28T09:02:55;4.23;;;1.30;;
29380;SDS011;16364;52.490;13.326;2023-01-28T09:05:20;1.53;;;1.37;;
29380;SDS011;16364;52.490;13.326;2023-01-28T09:07:46;1.60;;;1.30;;
29380;SDS011;16364;52.490;13.326;2023-01-28T09:10:11;1.53;;;1.30;;
29380;SDS011;16364;52.490;13.326;2023-01-28T09:12:37;2.90;;;1.70;;
29380;SDS011;16364;52.490;13.326;2023-01-28T09:15:03;4.00;;;1.37;;
29380;SDS011;16364;52.490;13.326;2023-01-28T09:17:28;1.70;;;1.50;;
29380;SDS011;16364;52.490;13.326;2023-01-28T09:19:54;6.20;;;2.40;;
29380;SDS011;16364;52.490;13.326;2023-01-28T09:22:19;2.10;;;1.90;;
29380;SDS011;16364;52.490;13.326;2023-01-28T09:24:46;5.67;;;1.50;;
29380;SDS011;16364;52.490;13.326;2023-01-28T09:27:11;2.40;;;1.40;;
29380;SDS011;16364;52.490;13.326;2023-01-28T09:29:38;2.40;;;1.20;;
29380;SDS011;16364;52.490;13.326;2023-01-28T09:32:04;1.63;;;1.13;;
29380;SDS011;16364;52.490;13.326;2023-01-28T09:34:29;1.17;;;1.07;;
29380;SDS011;16364;52.490;13.326;2023-01-28T09:36:54;2.10;;;1.10;;
29380;SDS011;16364;52.490;13.326;2023-01-28T09:39:19;2.03;;;1.10;;
29380;SDS011;16364;52.490;13.326;2023-01-28T09:42:07;1.30;;;1.20;;
29380;SDS011;16364;52.490;13.326;2023-01-28T09:47:02;2.10;;;1.07;;
29380;SDS011;16364;52.490;13.326;2023-01-28T09:49:31;1.50;;;1.30;;
29380;SDS011;16364;52.490;13.326;2023-01-28T09:51:58;2.20;;;1.10;;
29380;SDS011;16364;52.490;13.326;2023-01-28T09:57:13;1.70;;;0.90;;
29380;SDS011;16364;52.490;13.326;2023-01-28T09:59:41;5.40;;;0.90;;
29380;SDS011;16364;52.490;13.326;2023-01-28T10:04:47;1.17;;;1.07;;
29380;SDS011;16364;52.490;13.326;2023-01-28T10:10:03;1.00;;;0.77;;
29380;SDS011;16364;52.490;13.326;2023-01-28T10:17:40;1.40;;;1.30;;
29380;SDS011;16364;52.490;13.326;2023-01-28T10:22:40;1.30;;;1.00;;
29380;SDS011;16364;52.490;13.326;2023-01-28T10:25:12;1.10;;;1.00;;
29380;SDS011;16364;52.490;13.326;2023-01-28T10:27:39;1.30;;;1.00;;
29380;SDS011;16364;52.490;13.326;2023-01-28T10:30:18;1.10;;;0.90;;
29380;SDS011;16364;52.490;13.326;2023-01-28T10:32:58;2.80;;;1.10;;
29380;SDS011;16364;52.490;13.326;2023-01-28T10:35:25;1.00;;;0.90;;
29380;SDS011;16364;52.490;13.326;2023-01-28T10:37:52;2.20;;;1.10;;
29380;SDS011;16364;52.490;13.326;2023-01-28T10:40:21;1.00;;;0.90;;
29380;SDS011;16364;52.490;13.326;2023-01-28T10:42:46;1.90;;;1.13;;
29380;SDS011;16364;52.490;13.326;2023-01-28T10:47:53;3.43;;;1.10;;
29380;SDS011;16364;52.490;13.326;2023-01-28T10:50:23;1.10;;;1.00;;
29380;SDS011;16364;52.490;13.326;2023-01-28T10:52:56;0.77;;;0.77;;
29380;SDS011;16364;52.490;13.326;2023-01-28T10:55:21;1.40;;;0.80;;
29380;SDS011;16364;52.490;13.326;2023-01-28T10:57:47;0.77;;;0.77;;
29380;SDS011;16364;52.490;13.326;2023-01-28T11:02:46;1.10;;;1.00;;
29380;SDS011;16364;52.490;13.326;2023-01-28T11:07:41;1.30;;;1.00;;
29380;SDS011;16364;52.490;13.326;2023-01-28T11:18:15;2.23;;;2.03;;
29380;SDS011;16364;52.490;13.326;2023-01-28T11:20:41;4.60;;;3.37;;
29380;SDS011;16364;52.490;13.326;2023-01-28T11:23:26;3.80;;;2.43;;
29380;SDS011;16364;52.490;13.326;2023-01-28T11:26:26;1.77;;;1.63;;
29380;SDS011;16364;52.490;13.326;2023-01-28T11:28:43;1.57;;;1.43;;
29380;SDS011;16364;52.490;13.326;2023-01-28T11:31:09;1.73;;;1.40;;
29380;SDS011;16364;52.490;13.326;2023-01-28T11:33:36;3.03;;;1.30;;
29380;SDS011;16364;52.490;13.326;2023-01-28T11:36:04;2.03;;;1.30;;
29380;SDS011;16364;52.490;13.326;2023-01-28T11:38:29;2.00;;;1.20;;
29380;SDS011;16364;52.490;13.326;2023-01-28T11:40:55;0.97;;;0.97;;
29380;SDS011;16364;52.490;13.326;2023-01-28T11:43:24;1.37;;;1.20;;
29380;SDS011;16364;52.490;13.326;2023-01-28T12:09:19;1.50;;;1.40;;
29380;SDS011;16364;52.490;13.326;2023-01-28T12:11:54;4.70;;;1.50;;
29380;SDS011;16364;52.490;13.326;2023-01-28T12:20:00;3.00;;;1.13;;
29380;SDS011;16364;52.490;13.326;2023-01-28T12:30:35;1.20;;;1.10;;
29380;SDS011;16364;52.490;13.326;2023-01-28T12:33:19;3.10;;;2.20;;
29380;SDS011;16364;52.490;13.326;2023-01-28T12:43:10;2.70;;;1.40;;
29380;SDS011;16364;52.490;13.326;2023-01-28T12:45:40;1.40;;;1.07;;
29380;SDS011;16364;52.490;13.326;2023-01-28T12:48:15;1.80;;;1.70;;
29380;SDS011;16364;52.490;13.326;2023-01-28T12:53:22;1.77;;;1.40;;
29380;SDS011;16364;52.490;13.326;2023-01-28T12:56:12;1.10;;;1.00;;
29380;SDS011;16364;52.490;13.326;2023-01-28T12:58:36;1.23;;;1.10;;
29380;SDS011;16364;52.490;13.326;2023-01-28T13:01:04;3.80;;;1.60;;
29380;SDS011;16364;52.490;13.326;2023-01-28T13:03:35;5.83;;;1.57;;
29380;SDS011;16364;52.490;13.326;2023-01-28T13:06:07;4.60;;;1.47;;
29380;SDS011;16364;52.490;13.326;2023-01-28T13:08:33;1.47;;;1.30;;
29380;SDS011;16364;52.490;13.326;2023-01-28T13:10:59;4.27;;;1.10;;
29380;SDS011;16364;52.490;13.326;2023-01-28T13:13:31;0.90;;;0.90;;
29380;SDS011;16364;52.490;13.326;2023-01-28T13:15:57;1.67;;;0.90;;
29380;SDS011;16364;52.490;13.326;2023-01-28T13:21:04;1.33;;;0.87;;
29380;SDS011;16364;52.490;13.326;2023-01-28T13:25:56;1.07;;;0.87;;
29380;SDS011;16364;52.490;13.326;2023-01-28T13:28:32;1.10;;;1.00;;
29380;SDS011;16364;52.490;13.326;2023-01-28T13:33:29;5.23;;;1.50;;
29380;SDS011;16364;52.490;13.326;2023-01-28T13:35:54;1.03;;;0.90;;
29380;SDS011;16364;52.490;13.326;2023-01-28T13:38:20;2.20;;;1.10;;
29380;SDS011;16364;52.490;13.326;2023-01-28T13:40:52;0.80;;;0.80;;
29380;SDS011;16364;52.490;13.326;2023-01-28T13:43:25;1.00;;;0.87;;
29380;SDS011;16364;52.490;13.326;2023-01-28T13:46:10;1.93;;;0.87;;
29380;SDS011;16364;52.490;13.326;2023-01-28T13:48:44;1.73;;;1.10;;
29380;SDS011;16364;52.490;13.326;2023-01-28T13:51:14;1.00;;;1.00;;
29380;SDS011;16364;52.490;13.326;2023-01-28T13:53:46;1.10;;;1.00;;
29380;SDS011;16364;52.490;13.326;2023-01-28T13:56:19;1.10;;;1.00;;
29380;SDS011;16364;52.490;13.326;2023-01-28T14:06:32;2.47;;;1.10;;
29380;SDS011;16364;52.490;13.326;2023-01-28T14:12:00;1.10;;;1.00;;
29380;SDS011;16364;52.490;13.326;2023-01-28T14:17:16;1.40;;;1.30;;
29380;SDS011;16364;52.490;13.326;2023-01-28T14:19:45;1.30;;;1.20;;
29380;SDS011;16364;52.490;13.326;2023-01-28T14:22:17;0.90;;;0.90;;
29380;SDS011;16364;52.490;13.326;2023-01-28T14:24:43;1.90;;;0.90;;
29380;SDS011;16364;52.490;13.326;2023-01-28T14:32:22;2.20;;;0.90;;
29380;SDS011;16364;52.490;13.326;2023-01-28T14:34:51;1.00;;;0.90;;
29380;SDS011;16364;52.490;13.326;2023-01-28T14:37:17;1.13;;;1.03;;
29380;SDS011;16364;52.490;13.326;2023-01-28T14:39:44;1.23;;;0.90;;
29380;SDS011;16364;52.490;13.326;2023-01-28T14:42:56;3.37;;;1.50;;
29380;SDS011;16364;52.490;13.326;2023-01-28T14:47:42;1.60;;;1.30;;
29380;SDS011;16364;52.490;13.326;2023-01-28T14:50:16;2.33;;;1.80;;
29380;SDS011;16364;52.490;13.326;2023-01-28T14:57:56;2.23;;;1.70;;
29380;SDS011;16364;52.490;13.326;2023-01-28T15:00:24;2.10;;;1.27;;
29380;SDS011;16364;52.490;13.326;2023-01-28T15:02:50;2.00;;;1.67;;
29380;SDS011;16364;52.490;13.326;2023-01-28T15:05:28;1.30;;;1.10;;
29380;SDS011;16364;52.490;13.326;2023-01-28T15:07:54;2.40;;;1.20;;
29380;SDS011;16364;52.490;13.326;2023-01-28T15:10:22;1.40;;;1.30;;
29380;SDS011;16364;52.490;13.326;2023-01-28T15:12:53;1.80;;;1.60;;
29380;SDS011;16364;52.490;13.326;2023-01-28T15:15:29;1.50;;;1.40;;
29380;SDS011;16364;52.490;13.326;2023-01-28T15:18:04;1.57;;;1.47;;
29380;SDS011;16364;52.490;13.326;2023-01-28T15:20:31;1.50;;;1.20;;
29380;SDS011;16364;52.490;13.326;2023-01-28T15:22:56;5.23;;;1.00;;
29380;SDS011;16364;52.490;13.326;2023-01-28T15:25:23;1.70;;;1.60;;
29380;SDS011;16364;52.490;13.326;2023-01-28T15:27:49;1.40;;;1.30;;
29380;SDS011;16364;52.490;13.326;2023-01-28T15:30:20;1.87;;;1.30;;
29380;SDS011;16364;52.490;13.326;2023-01-28T15:32:55;3.53;;;2.10;;
29380;SDS011;16364;52.490;13.326;2023-01-28T15:35:20;5.37;;;3.80;;
29380;SDS011;16364;52.490;13.326;2023-01-28T15:37:45;6.27;;;2.40;;
29380;SDS011;16364;52.490;13.326;2023-01-28T15:40:16;2.53;;;1.20;;
29380;SDS011;16364;52.490;13.326;2023-01-28T15:42:41;2.67;;;1.80;;
29380;SDS011;16364;52.490;13.326;2023-01-28T15:45:19;2.13;;;1.23;;
29380;SDS011;16364;52.490;13.326;2023-01-28T15:47:45;1.43;;;1.33;;
29380;SDS011;16364;52.490;13.326;2023-01-28T15:50:18;2.53;;;1.77;;
29380;SDS011;16364;52.490;13.326;2023-01-28T15:52:44;1.83;;;1.73;;
29380;SDS011;16364;52.490;13.326;2023-01-28T15:57:50;1.20;;;1.10;;
29380;SDS011;16364;52.490;13.326;2023-01-28T16:00:17;1.40;;;1.30;;
29380;SDS011;16364;52.490;13.326;2023-01-28T16:02:47;1.30;;;1.17;;
29380;SDS011;16364;52.490;13.326;2023-01-28T16:07:48;2.03;;;1.67;;
29380;SDS011;16364;52.490;13.326;2023-01-28T16:10:22;1.30;;;1.20;;
29380;SDS011;16364;52.490;13.326;2023-01-28T16:12:49;3.20;;;1.10;;
29380;SDS011;16364;52.490;13.326;2023-01-28T16:15:17;2.00;;;1.30;;
29380;SDS011;16364;52.490;13.326;2023-01-28T16:17:45;1.83;;;1.10;;
29380;SDS011;16364;52.490;13.326;2023-01-28T16:20:21;1.30;;;1.13;;
29380;SDS011;16364;52.490;13.326;2023-01-28T16:22:50;1.23;;;1.13;;
29380;SDS011;16364;52.490;13.326;2023-01-28T16:25:34;2.53;;;1.00;;
29380;SDS011;16364;52.490;13.326;2023-01-28T16:28:01;1.80;;;1.70;;
29380;SDS011;16364;52.490;13.326;2023-01-28T16:30:27;1.30;;;1.20;;
29380;SDS011;16364;52.490;13.326;2023-01-28T16:32:53;1.30;;;1.20;;
29380;SDS011;16364;52.490;13.326;2023-01-28T16:35:26;2.10;;;1.50;;
29380;SDS011;16364;52.490;13.326;2023-01-28T16:37:51;1.43;;;1.30;;
29380;SDS011;16364;52.490;13.326;2023-01-28T16:40:18;1.67;;;1.20;;
29380;SDS011;16364;52.490;13.326;2023-01-28T16:42:44;1.83;;;1.10;;
29380;SDS011;16364;52.490;13.326;2023-01-28T16:45:27;3.10;;;2.30;;
29380;SDS011;16364;52.490;13.326;2023-01-28T16:47:53;2.97;;;1.60;;
29380;SDS011;16364;52.490;13.326;2023-01-28T16:50:18;1.30;;;1.20;;
29380;SDS011;16364;52.490;13.326;2023-01-28T16:52:47;2.43;;;1.60;;
29380;SDS011;16364;52.490;13.326;2023-01-28T16:55:14;1.30;;;1.20;;
29380;SDS011;16364;52.490;13.326;2023-01-28T16:57:40;1.27;;;1.17;;
29380;SDS011;16364;52.490;13.326;2023-01-28T17:00:05;1.50;;;1.40;;
29380;SDS011;16364;52.490;13.326;2023-01-28T17:02:31;2.00;;;1.20;;